createdAt,value
2024-01-18T00:00:43.691Z,1.40
2024-01-18T00:01:33.651Z,1.38
2024-01-18T00:02:23.668Z,1.36
2024-01-18T00:03:13.760Z,1.36
2024-01-18T00:04:03.885Z,1.39
2024-01-18T00:04:53.796Z,1.39
2024-01-18T00:05:43.911Z,1.37
2024-01-18T00:06:34.032Z,1.39
2024-01-18T00:07:24.057Z,1.39
2024-01-18T00:08:14.058Z,1.39
2024-01-18T00:09:04.089Z,1.36
2024-01-18T00:09:54.156Z,1.36
2024-01-18T00:10:44.249Z,1.38
2024-01-18T00:11:34.276Z,1.36
2024-01-18T00:12:24.637Z,1.36
2024-01-18T00:13:14.673Z,1.35
2024-01-18T00:14:04.717Z,1.35
2024-01-18T00:14:54.770Z,1.32
2024-01-18T00:15:44.892Z,1.35
2024-01-18T00:16:34.874Z,1.35
2024-01-18T00:17:24.990Z,1.36
2024-01-18T00:18:15.149Z,1.35
2024-01-18T00:19:05.188Z,1.36
2024-01-18T00:19:55.145Z,1.32
2024-01-18T00:20:45.192Z,1.37
2024-01-18T00:21:35.539Z,1.32
2024-01-18T00:22:25.536Z,1.39
2024-01-18T00:23:15.604Z,1.38
2024-01-18T00:24:05.679Z,1.35
2024-01-18T00:24:55.713Z,1.34
2024-01-18T00:25:45.782Z,1.35
2024-01-18T00:26:35.808Z,1.33
2024-01-18T00:27:25.915Z,1.32
2024-01-18T00:28:15.944Z,1.33
2024-01-18T00:29:05.986Z,1.29
2024-01-18T00:29:56.043Z,1.29
2024-01-18T00:30:46.152Z,1.29
2024-01-18T00:31:36.187Z,1.28
2024-01-18T00:32:26.186Z,1.30
2024-01-18T00:33:16.350Z,1.28
2024-01-18T00:34:06.350Z,1.30
2024-01-18T00:34:56.413Z,1.32
2024-01-18T00:35:46.503Z,1.33
2024-01-18T00:36:36.522Z,1.31
2024-01-18T00:37:26.583Z,1.33
2024-01-18T00:38:16.660Z,1.34
2024-01-18T00:39:06.665Z,1.36
2024-01-18T00:39:56.734Z,1.34
2024-01-18T00:40:46.801Z,1.32
2024-01-18T00:41:36.872Z,1.36
2024-01-18T00:42:26.982Z,1.33
2024-01-18T00:43:17.015Z,1.35
2024-01-18T00:44:07.054Z,1.37
2024-01-18T00:44:57.130Z,1.36
2024-01-18T00:45:47.172Z,1.34
2024-01-18T00:46:37.180Z,1.33
2024-01-18T00:47:27.246Z,1.31
2024-01-18T00:48:17.479Z,1.36
2024-01-18T00:49:07.403Z,1.32
2024-01-18T00:49:57.549Z,1.35
2024-01-18T00:50:47.509Z,1.34
2024-01-18T00:51:37.629Z,1.35
2024-01-18T00:52:27.592Z,1.34
2024-01-18T00:53:17.704Z,1.34
2024-01-18T00:54:07.825Z,1.34
2024-01-18T00:54:57.789Z,1.36
2024-01-18T00:55:47.866Z,1.35
2024-01-18T00:56:37.897Z,1.32
2024-01-18T00:57:27.981Z,1.36
2024-01-18T00:58:18.025Z,1.35
2024-01-18T00:59:08.055Z,1.34
2024-01-18T00:59:58.160Z,1.33
2024-01-18T01:00:48.204Z,1.35
2024-01-18T01:01:38.263Z,1.36
2024-01-18T01:02:28.340Z,1.35
2024-01-18T01:03:18.444Z,1.37
2024-01-18T01:04:08.503Z,1.34
2024-01-18T01:04:58.519Z,1.35
2024-01-18T01:05:48.609Z,1.36
2024-01-18T01:06:38.644Z,1.35
2024-01-18T01:07:28.697Z,1.35
2024-01-18T01:08:18.859Z,1.36
2024-01-18T01:09:08.845Z,1.34
2024-01-18T01:09:58.891Z,1.33
2024-01-18T01:10:48.930Z,1.36
2024-01-18T01:11:38.970Z,1.38
2024-01-18T01:12:29.114Z,1.43
2024-01-18T01:13:19.081Z,1.42
2024-01-18T01:14:09.115Z,1.40
2024-01-18T01:14:59.203Z,1.39
2024-01-18T01:15:49.418Z,1.36
2024-01-18T01:16:39.274Z,1.39
2024-01-18T01:17:29.631Z,1.35
2024-01-18T01:18:19.819Z,1.32
2024-01-18T01:19:09.827Z,1.33
2024-01-18T01:20:02.711Z,1.35
2024-01-18T01:20:50.833Z,1.35
2024-01-18T01:21:39.920Z,1.34
2024-01-18T01:22:29.950Z,1.35
2024-01-18T01:23:20.012Z,1.37
2024-01-18T01:24:10.058Z,1.37
2024-01-18T01:25:00.202Z,1.39
2024-01-18T01:25:50.196Z,1.45
2024-01-18T01:26:40.363Z,1.44
2024-01-18T01:27:30.543Z,1.40
2024-01-18T01:28:20.490Z,1.41
2024-01-18T01:29:10.520Z,1.42
2024-01-18T01:30:00.601Z,1.40
2024-01-18T01:30:50.637Z,1.41
2024-01-18T01:31:40.682Z,1.40
2024-01-18T01:32:30.735Z,1.43
2024-01-18T01:33:21.004Z,1.41
2024-01-18T01:34:10.945Z,1.39
2024-01-18T01:35:00.872Z,1.38
2024-01-18T01:35:50.944Z,1.36
2024-01-18T01:36:41.096Z,1.36
2024-01-18T01:37:31.036Z,1.32
2024-01-18T01:38:21.098Z,1.37
2024-01-18T01:39:11.151Z,1.35
2024-01-18T01:40:01.211Z,1.35
2024-01-18T01:40:51.273Z,1.36
2024-01-18T01:41:41.361Z,1.38
2024-01-18T01:42:31.451Z,1.34
2024-01-18T01:43:21.450Z,1.39
2024-01-18T01:44:11.490Z,1.35
2024-01-18T01:45:01.674Z,1.40
2024-01-18T01:45:51.610Z,1.40
2024-01-18T01:46:41.683Z,1.37
2024-01-18T01:47:31.842Z,1.34
2024-01-18T01:48:21.974Z,1.35
2024-01-18T01:49:11.934Z,1.34
2024-01-18T01:50:01.990Z,1.35
2024-01-18T01:50:51.970Z,1.36
2024-01-18T01:51:42.066Z,1.34
2024-01-18T01:52:33.068Z,1.39
2024-01-18T01:53:22.259Z,1.39
2024-01-18T01:54:12.433Z,1.36
2024-01-18T01:55:02.356Z,1.33
2024-01-18T01:55:52.439Z,1.33
2024-01-18T01:56:42.500Z,1.36
2024-01-18T01:57:32.665Z,1.35
2024-01-18T01:58:22.661Z,1.36
2024-01-18T01:59:12.696Z,1.38
2024-01-18T02:00:02.827Z,1.36
2024-01-18T02:00:52.895Z,1.35
2024-01-18T02:01:42.841Z,1.34
2024-01-18T02:02:33.178Z,1.36
2024-01-18T02:03:23.271Z,1.35
2024-01-18T02:04:13.362Z,1.34
2024-01-18T02:05:03.344Z,1.37
2024-01-18T02:05:53.487Z,1.34
2024-01-18T02:06:43.474Z,1.37
2024-01-18T02:07:33.469Z,1.37
2024-01-18T02:08:23.573Z,1.36
2024-01-18T02:09:13.649Z,1.36
2024-01-18T02:10:03.815Z,1.38
2024-01-18T02:10:54.761Z,1.35
2024-01-18T02:11:43.768Z,1.35
2024-01-18T02:12:33.855Z,1.35
2024-01-18T02:13:23.927Z,1.40
2024-01-18T02:14:13.926Z,1.43
2024-01-18T02:15:04.117Z,1.40
2024-01-18T02:15:54.011Z,1.36
2024-01-18T02:16:44.051Z,1.38
2024-01-18T02:17:34.147Z,1.36
2024-01-18T02:18:24.589Z,1.40
2024-01-18T02:19:14.894Z,1.37
2024-01-18T02:20:04.532Z,1.41
2024-01-18T02:20:54.573Z,1.37
2024-01-18T02:21:44.598Z,1.39
2024-01-18T02:22:34.671Z,1.36
2024-01-18T02:23:24.730Z,1.38
2024-01-18T02:24:14.797Z,1.35
2024-01-18T02:25:04.785Z,1.40
2024-01-18T02:25:54.855Z,1.36
2024-01-18T02:26:44.880Z,1.40
2024-01-18T02:27:35.110Z,1.39
2024-01-18T02:28:25.042Z,1.38
2024-01-18T02:29:15.106Z,1.39
2024-01-18T02:30:05.120Z,1.37
2024-01-18T02:30:55.221Z,1.38
2024-01-18T02:31:45.343Z,1.36
2024-01-18T02:32:35.427Z,1.39
2024-01-18T02:33:25.606Z,1.40
2024-01-18T02:34:15.567Z,1.37
2024-01-18T02:35:05.499Z,1.39
2024-01-18T02:35:55.634Z,1.37
2024-01-18T02:36:45.693Z,1.35
2024-01-18T02:37:35.674Z,1.35
2024-01-18T02:38:25.901Z,1.39
2024-01-18T02:39:15.974Z,1.33
2024-01-18T02:40:05.995Z,1.32
2024-01-18T02:40:56.088Z,1.36
2024-01-18T02:41:46.104Z,1.35
2024-01-18T02:42:36.251Z,1.34
2024-01-18T02:43:26.246Z,1.37
2024-01-18T02:44:16.272Z,1.37
2024-01-18T02:45:06.518Z,1.39
2024-01-18T02:45:56.419Z,1.38
2024-01-18T02:46:46.448Z,1.35
2024-01-18T02:47:36.646Z,1.38
2024-01-18T02:48:26.607Z,1.37
2024-01-18T02:49:16.682Z,1.37
2024-01-18T02:50:06.697Z,1.35
2024-01-18T02:50:56.767Z,1.34
2024-01-18T02:51:46.993Z,1.33
2024-01-18T02:52:37.067Z,1.32
2024-01-18T02:53:27.167Z,1.36
2024-01-18T02:54:17.484Z,1.36
2024-01-18T02:55:07.481Z,1.35
2024-01-18T02:55:57.557Z,1.35
2024-01-18T02:56:47.630Z,1.31
2024-01-18T02:57:37.837Z,1.33
2024-01-18T02:58:27.780Z,1.34
2024-01-18T02:59:17.812Z,1.34
2024-01-18T03:00:07.920Z,1.34
2024-01-18T03:00:57.989Z,1.32
2024-01-18T03:01:47.952Z,1.37
2024-01-18T03:02:38.030Z,1.37
2024-01-18T03:03:28.443Z,1.33
2024-01-18T03:04:18.425Z,1.36
2024-01-18T03:05:08.449Z,1.36
2024-01-18T03:05:58.555Z,1.36
2024-01-18T03:06:48.623Z,1.36
2024-01-18T03:07:38.664Z,1.35
2024-01-18T03:08:28.735Z,1.36
2024-01-18T03:09:18.805Z,1.34
2024-01-18T03:10:08.813Z,1.36
2024-01-18T03:10:58.879Z,1.36
2024-01-18T03:11:48.949Z,1.39
2024-01-18T03:12:39.229Z,1.37
2024-01-18T03:13:29.277Z,1.36
2024-01-18T03:14:19.300Z,1.40
2024-01-18T03:15:09.389Z,1.39
2024-01-18T03:15:59.374Z,1.41
2024-01-18T03:16:49.428Z,1.38
2024-01-18T03:17:39.507Z,1.40
2024-01-18T03:18:29.616Z,1.41
2024-01-18T03:19:19.696Z,1.41
2024-01-18T03:20:09.684Z,1.36
2024-01-18T03:20:59.830Z,1.35
2024-01-18T03:21:49.829Z,1.37
2024-01-18T03:22:40.153Z,1.33
2024-01-18T03:23:30.220Z,1.36
2024-01-18T03:24:20.315Z,1.36
2024-01-18T03:25:10.257Z,1.36
2024-01-18T03:26:00.404Z,1.39
2024-01-18T03:26:50.389Z,1.39
2024-01-18T03:27:40.592Z,1.40
2024-01-18T03:28:30.495Z,1.41
2024-01-18T03:29:20.569Z,1.37
2024-01-18T03:30:10.618Z,1.37
2024-01-18T03:31:00.637Z,1.37
2024-01-18T03:31:50.976Z,1.35
2024-01-18T03:32:41.055Z,1.37
2024-01-18T03:33:31.118Z,1.37
2024-01-18T03:34:21.206Z,1.39
2024-01-18T03:35:11.174Z,1.41
2024-01-18T03:36:01.380Z,1.40
2024-01-18T03:36:51.366Z,1.40
2024-01-18T03:37:41.371Z,1.39
2024-01-18T03:38:31.469Z,1.38
2024-01-18T03:39:21.533Z,1.38
2024-01-18T03:40:11.526Z,1.37
2024-01-18T03:41:01.620Z,1.41
2024-01-18T03:41:51.665Z,1.34
2024-01-18T03:42:41.789Z,1.36
2024-01-18T03:43:31.864Z,1.35
2024-01-18T03:44:21.841Z,1.37
2024-01-18T03:45:11.914Z,1.38
2024-01-18T03:46:01.984Z,1.34
2024-01-18T03:46:51.979Z,1.36
2024-01-18T03:47:43.504Z,1.39
2024-01-18T03:48:32.179Z,1.39
2024-01-18T03:49:22.202Z,1.38
2024-01-18T03:50:12.247Z,1.37
2024-01-18T03:51:02.339Z,1.37
2024-01-18T03:51:52.469Z,1.38
2024-01-18T03:52:42.535Z,1.39
2024-01-18T03:53:32.609Z,1.38
2024-01-18T03:54:22.710Z,1.36
2024-01-18T03:55:12.674Z,1.36
2024-01-18T03:56:02.752Z,1.36
2024-01-18T03:56:52.813Z,1.37
2024-01-18T03:57:42.910Z,1.36
2024-01-18T03:58:32.942Z,1.37
2024-01-18T03:59:22.972Z,1.37
2024-01-18T04:00:13.069Z,1.36
2024-01-18T04:01:04.246Z,1.34
2024-01-18T04:01:53.195Z,1.35
2024-01-18T04:02:43.262Z,1.35
2024-01-18T04:03:33.410Z,1.35
2024-01-18T04:04:23.415Z,1.34
2024-01-18T04:05:13.496Z,1.33
2024-01-18T04:06:03.729Z,1.34
2024-01-18T04:06:53.786Z,1.49
2024-01-18T04:07:43.813Z,2.04
2024-01-18T04:08:33.843Z,2.32
2024-01-18T04:09:23.926Z,2.40
2024-01-18T04:10:13.920Z,2.37
2024-01-18T04:11:03.955Z,2.26
2024-01-18T04:11:53.987Z,2.18
2024-01-18T04:12:44.109Z,2.10
2024-01-18T04:13:34.187Z,2.11
2024-01-18T04:14:25.265Z,2.14
2024-01-18T04:15:14.292Z,2.15
2024-01-18T04:16:04.320Z,2.21
2024-01-18T04:16:54.328Z,2.26
2024-01-18T04:17:44.477Z,2.39
2024-01-18T04:18:34.607Z,2.41
2024-01-18T04:19:24.660Z,2.60
2024-01-18T04:20:14.788Z,2.64
2024-01-18T04:21:04.914Z,2.80
2024-01-18T04:21:54.898Z,2.83
2024-01-18T04:22:45.007Z,2.91
2024-01-18T04:23:35.068Z,2.94
2024-01-18T04:24:25.147Z,2.95
2024-01-18T04:25:15.172Z,2.95
2024-01-18T04:26:05.240Z,3.00
2024-01-18T04:26:55.271Z,2.94
2024-01-18T04:27:45.430Z,2.97
2024-01-18T04:28:35.454Z,2.98
2024-01-18T04:29:25.677Z,3.00
2024-01-18T04:30:15.766Z,2.96
2024-01-18T04:31:05.746Z,3.04
2024-01-18T04:31:55.776Z,2.93
2024-01-18T04:32:45.876Z,2.99
2024-01-18T04:33:36.000Z,2.97
2024-01-18T04:34:26.004Z,2.96
2024-01-18T04:35:16.114Z,2.98
2024-01-18T04:36:06.152Z,2.87
2024-01-18T04:36:56.150Z,2.94
2024-01-18T04:37:46.222Z,2.90
2024-01-18T04:38:36.528Z,2.96
2024-01-18T04:39:26.614Z,2.94
2024-01-18T04:40:16.621Z,2.99
2024-01-18T04:41:06.699Z,2.88
2024-01-18T04:41:56.745Z,2.91
2024-01-18T04:42:46.797Z,2.96
2024-01-18T04:43:36.825Z,2.81
2024-01-18T04:44:26.866Z,2.86
2024-01-18T04:45:17.004Z,2.83
2024-01-18T04:46:07.020Z,2.81
2024-01-18T04:46:57.081Z,2.80
2024-01-18T04:47:47.426Z,2.82
2024-01-18T04:48:37.507Z,2.81
2024-01-18T04:49:27.524Z,2.79
2024-01-18T04:50:17.528Z,2.73
2024-01-18T04:51:07.625Z,2.71
2024-01-18T04:51:57.630Z,2.71
2024-01-18T04:52:47.697Z,2.70
2024-01-18T04:53:37.758Z,2.75
2024-01-18T04:54:27.876Z,2.70
2024-01-18T04:55:17.889Z,2.67
2024-01-18T04:56:07.980Z,2.68
2024-01-18T04:56:58.029Z,2.61
2024-01-18T04:57:48.153Z,2.65
2024-01-18T04:58:39.422Z,2.67
2024-01-18T04:59:28.194Z,2.67
2024-01-18T05:00:18.296Z,2.67
2024-01-18T05:01:08.423Z,2.68
2024-01-18T05:01:58.358Z,2.67
2024-01-18T05:02:48.391Z,2.65
2024-01-18T05:03:38.531Z,2.68
2024-01-18T05:04:28.620Z,2.70
2024-01-18T05:05:18.712Z,2.67
2024-01-18T05:06:09.045Z,2.73
2024-01-18T05:06:59.064Z,2.66
2024-01-18T05:07:49.044Z,2.67
2024-01-18T05:08:39.047Z,2.63
2024-01-18T05:09:29.136Z,2.58
2024-01-18T05:10:19.162Z,2.62
2024-01-18T05:11:09.244Z,2.58
2024-01-18T05:11:59.307Z,2.60
2024-01-18T05:12:49.387Z,2.61
2024-01-18T05:13:39.428Z,2.55
2024-01-18T05:14:29.456Z,2.49
2024-01-18T05:15:19.569Z,2.55
2024-01-18T05:16:09.573Z,2.57
2024-01-18T05:16:59.609Z,2.57
2024-01-18T05:17:49.738Z,2.55
2024-01-18T05:18:39.786Z,2.53
2024-01-18T05:19:29.866Z,2.57
2024-01-18T05:20:19.876Z,2.54
2024-01-18T05:21:09.971Z,2.48
2024-01-18T05:21:59.995Z,2.41
2024-01-18T05:22:50.036Z,2.48
2024-01-18T05:23:40.058Z,2.47
2024-01-18T05:24:30.205Z,2.47
2024-01-18T05:25:20.150Z,2.44
2024-01-18T05:26:10.367Z,2.47
2024-01-18T05:27:00.415Z,2.43
2024-01-18T05:27:50.407Z,2.39
2024-01-18T05:28:40.389Z,2.42
2024-01-18T05:29:30.428Z,2.35
2024-01-18T05:30:20.518Z,2.37
2024-01-18T05:31:10.557Z,2.37
2024-01-18T05:32:00.611Z,2.34
2024-01-18T05:32:50.744Z,2.38
2024-01-18T05:33:40.787Z,2.38
2024-01-18T05:34:30.957Z,2.39
2024-01-18T05:35:20.871Z,2.37
2024-01-18T05:36:10.915Z,2.35
2024-01-18T05:37:00.919Z,2.36
2024-01-18T05:37:50.962Z,2.34
2024-01-18T05:38:42.267Z,2.34
2024-01-18T05:39:31.201Z,2.37
2024-01-18T05:40:21.169Z,2.32
2024-01-18T05:41:11.253Z,2.28
2024-01-18T05:42:01.326Z,2.36
2024-01-18T05:42:51.391Z,2.32
2024-01-18T05:43:41.428Z,2.34
2024-01-18T05:44:31.461Z,2.37
2024-01-18T05:45:21.506Z,2.30
2024-01-18T05:46:11.623Z,2.31
2024-01-18T05:47:01.694Z,2.33
2024-01-18T05:47:51.777Z,2.31
2024-01-18T05:48:41.883Z,2.35
2024-01-18T05:49:31.913Z,2.25
2024-01-18T05:50:21.914Z,2.32
2024-01-18T05:51:11.994Z,2.27
2024-01-18T05:52:02.025Z,2.36
2024-01-18T05:52:52.208Z,2.29
2024-01-18T05:53:42.221Z,2.29
2024-01-18T05:54:32.340Z,2.24
2024-01-18T05:55:22.289Z,2.27
2024-01-18T05:56:12.325Z,2.23
2024-01-18T05:57:02.429Z,2.26
2024-01-18T05:57:52.421Z,2.21
2024-01-18T05:58:45.498Z,2.25
2024-01-18T05:59:32.541Z,2.25
2024-01-18T06:00:23.493Z,2.25
2024-01-18T06:01:12.697Z,2.25
2024-01-18T06:02:02.686Z,2.26
2024-01-18T06:02:52.758Z,2.29
2024-01-18T06:03:42.974Z,2.23
2024-01-18T06:04:32.945Z,2.23
2024-01-18T06:05:22.946Z,2.29
2024-01-18T06:06:13.109Z,2.27
2024-01-18T06:07:03.290Z,2.29
2024-01-18T06:07:53.173Z,2.21
2024-01-18T06:08:43.243Z,2.23
2024-01-18T06:09:33.419Z,2.20
2024-01-18T06:10:23.342Z,2.25
2024-01-18T06:11:13.354Z,2.21
2024-01-18T06:12:03.387Z,2.21
2024-01-18T06:12:53.521Z,2.21
2024-01-18T06:13:43.556Z,2.20
2024-01-18T06:14:34.658Z,2.22
2024-01-18T06:15:23.793Z,2.23
2024-01-18T06:16:13.738Z,2.23
2024-01-18T06:17:03.757Z,2.18
2024-01-18T06:17:53.829Z,2.19
2024-01-18T06:18:44.265Z,2.24
2024-01-18T06:19:34.309Z,2.14
2024-01-18T06:20:24.178Z,2.19
2024-01-18T06:21:14.285Z,2.18
2024-01-18T06:22:04.288Z,2.20
2024-01-18T06:22:54.337Z,2.15
2024-01-18T06:23:44.377Z,2.18
2024-01-18T06:24:34.545Z,2.16
2024-01-18T06:25:24.462Z,2.13
2024-01-18T06:26:14.585Z,2.19
2024-01-18T06:27:04.641Z,2.16
2024-01-18T06:27:54.648Z,2.15
2024-01-18T06:28:44.698Z,2.09
2024-01-18T06:29:34.735Z,2.18
2024-01-18T06:30:24.810Z,2.13
2024-01-18T06:31:14.820Z,2.12
2024-01-18T06:32:07.392Z,2.18
2024-01-18T06:32:54.927Z,2.16
2024-01-18T06:33:45.023Z,2.13
2024-01-18T06:34:35.098Z,2.16
2024-01-18T06:35:25.071Z,2.10
2024-01-18T06:36:15.157Z,2.12
2024-01-18T06:37:05.167Z,2.07
2024-01-18T06:37:55.208Z,2.12
2024-01-18T06:38:45.280Z,2.09
2024-01-18T06:39:35.293Z,2.08
2024-01-18T06:40:25.313Z,2.09
2024-01-18T06:41:15.386Z,2.08
2024-01-18T06:42:05.471Z,2.13
2024-01-18T06:42:55.462Z,2.15
2024-01-18T06:43:45.542Z,2.08
2024-01-18T06:44:35.537Z,2.09
2024-01-18T06:45:25.663Z,2.05
2024-01-18T06:46:15.626Z,2.23
2024-01-18T06:47:05.719Z,2.63
2024-01-18T06:47:55.785Z,3.25
2024-01-18T06:48:45.839Z,3.60
2024-01-18T06:49:35.926Z,3.70
2024-01-18T06:50:25.931Z,3.68
2024-01-18T06:51:16.049Z,3.91
2024-01-18T06:52:06.037Z,3.78
2024-01-18T06:52:56.082Z,3.85
2024-01-18T06:53:46.149Z,3.76
2024-01-18T06:54:36.231Z,3.90
2024-01-18T06:55:26.224Z,3.79
2024-01-18T06:56:16.345Z,3.88
2024-01-18T06:57:06.401Z,3.94
2024-01-18T06:57:56.446Z,3.89
2024-01-18T06:58:46.468Z,3.97
2024-01-18T06:59:36.504Z,4.28
2024-01-18T07:00:26.568Z,3.93
2024-01-18T07:01:16.706Z,3.87
2024-01-18T07:02:06.648Z,3.85
2024-01-18T07:02:56.762Z,3.76
2024-01-18T07:03:46.948Z,3.64
2024-01-18T07:04:36.932Z,3.71
2024-01-18T07:05:26.907Z,3.64
2024-01-18T07:06:16.993Z,3.53
2024-01-18T07:07:07.038Z,3.50
2024-01-18T07:07:57.063Z,3.43
2024-01-18T07:08:47.126Z,3.50
2024-01-18T07:09:37.182Z,3.43
2024-01-18T07:10:27.199Z,3.24
2024-01-18T07:11:17.289Z,3.25
2024-01-18T07:12:07.374Z,3.23
2024-01-18T07:12:57.404Z,3.17
2024-01-18T07:13:47.485Z,2.93
2024-01-18T07:14:37.503Z,2.99
2024-01-18T07:15:27.558Z,2.96
2024-01-18T07:16:17.610Z,2.94
2024-01-18T07:17:07.633Z,2.94
2024-01-18T07:17:57.731Z,2.96
2024-01-18T07:18:47.808Z,2.89
2024-01-18T07:19:40.455Z,3.00
2024-01-18T07:20:27.874Z,3.00
2024-01-18T07:21:17.952Z,2.94
2024-01-18T07:22:07.958Z,2.85
2024-01-18T07:22:58.031Z,2.84
2024-01-18T07:23:48.125Z,2.79
2024-01-18T07:24:38.174Z,2.74
2024-01-18T07:25:28.213Z,2.69
2024-01-18T07:26:18.385Z,2.63
2024-01-18T07:27:08.470Z,2.63
2024-01-18T07:27:58.505Z,2.54
2024-01-18T07:28:48.611Z,2.59
2024-01-18T07:29:38.661Z,2.63
2024-01-18T07:30:28.684Z,2.61
2024-01-18T07:31:18.725Z,2.59
2024-01-18T07:32:08.817Z,2.50
2024-01-18T07:32:58.887Z,2.50
2024-01-18T07:33:48.907Z,2.50
2024-01-18T07:34:39.036Z,2.53
2024-01-18T07:35:28.917Z,2.54
2024-01-18T07:36:19.028Z,2.50
2024-01-18T07:37:10.829Z,2.54
2024-01-18T07:37:59.056Z,2.44
2024-01-18T07:38:49.115Z,2.40
2024-01-18T07:39:39.245Z,2.42
2024-01-18T07:40:29.213Z,2.37
2024-01-18T07:41:19.257Z,2.33
2024-01-18T07:42:09.355Z,2.35
2024-01-18T07:42:59.429Z,2.26
2024-01-18T07:43:49.444Z,2.29
2024-01-18T07:44:39.493Z,2.28
2024-01-18T07:45:29.611Z,2.25
2024-01-18T07:46:19.580Z,2.25
2024-01-18T07:47:09.620Z,2.20
2024-01-18T07:47:59.725Z,2.17
2024-01-18T07:48:49.862Z,2.15
2024-01-18T07:49:39.880Z,2.20
2024-01-18T07:50:35.447Z,2.25
2024-01-18T07:51:20.967Z,2.22
2024-01-18T07:52:09.966Z,2.24
2024-01-18T07:53:00.050Z,2.25
2024-01-18T07:53:50.123Z,2.27
2024-01-18T07:54:40.209Z,2.27
2024-01-18T07:55:30.615Z,2.25
2024-01-18T07:56:20.284Z,2.25
2024-01-18T07:57:10.462Z,2.26
2024-01-18T07:58:00.514Z,2.27
2024-01-18T07:58:50.615Z,2.29
2024-01-18T07:59:40.637Z,2.31
2024-01-18T08:00:30.728Z,2.32
2024-01-18T08:01:20.809Z,2.27
2024-01-18T08:02:10.798Z,2.27
2024-01-18T08:03:00.813Z,2.27
2024-01-18T08:03:51.012Z,2.27
2024-01-18T08:04:40.980Z,2.29
2024-01-18T08:05:31.078Z,2.21
2024-01-18T08:06:21.137Z,2.24
2024-01-18T08:07:11.095Z,2.25
2024-01-18T08:08:01.124Z,2.17
2024-01-18T08:08:51.202Z,2.20
2024-01-18T08:09:41.310Z,2.18
2024-01-18T08:10:31.373Z,2.26
2024-01-18T08:11:21.415Z,2.17
2024-01-18T08:12:11.451Z,2.22
2024-01-18T08:13:01.533Z,2.20
2024-01-18T08:13:51.604Z,2.22
2024-01-18T08:14:41.653Z,2.12
2024-01-18T08:15:31.769Z,2.21
2024-01-18T08:16:21.763Z,2.15
2024-01-18T08:17:11.842Z,2.09
2024-01-18T08:18:01.969Z,2.21
2024-01-18T08:18:52.058Z,2.15
2024-01-18T08:19:42.112Z,2.13
2024-01-18T08:20:32.080Z,2.09
2024-01-18T08:21:22.134Z,2.11
2024-01-18T08:22:12.139Z,2.10
2024-01-18T08:23:02.186Z,2.04
2024-01-18T08:23:52.348Z,2.05
2024-01-18T08:24:42.509Z,1.97
2024-01-18T08:25:32.469Z,1.97
2024-01-18T08:26:22.537Z,1.97
2024-01-18T08:27:12.582Z,1.97
2024-01-18T08:28:02.743Z,1.97
2024-01-18T08:28:52.735Z,1.97
2024-01-18T08:29:42.763Z,2.02
2024-01-18T08:30:32.973Z,2.02
2024-01-18T08:31:22.917Z,1.97
2024-01-18T08:32:12.947Z,1.98
2024-01-18T08:33:03.177Z,2.02
2024-01-18T08:33:53.210Z,2.05
2024-01-18T08:34:45.715Z,1.97
2024-01-18T08:35:33.210Z,1.97
2024-01-18T08:36:23.354Z,1.97
2024-01-18T08:37:13.479Z,1.98
2024-01-18T08:38:03.377Z,1.98
2024-01-18T08:38:53.418Z,1.94
2024-01-18T08:39:43.489Z,1.97
2024-01-18T08:40:33.484Z,1.92
2024-01-18T08:41:23.533Z,1.94
2024-01-18T08:42:13.585Z,1.92
2024-01-18T08:43:03.614Z,1.91
2024-01-18T08:43:53.663Z,1.92
2024-01-18T08:44:43.702Z,1.94
2024-01-18T08:45:33.789Z,1.91
2024-01-18T08:46:23.873Z,1.87
2024-01-18T08:47:14.203Z,1.93
2024-01-18T08:48:04.074Z,1.87
2024-01-18T08:48:54.099Z,1.91
2024-01-18T08:49:44.079Z,1.86
2024-01-18T08:50:34.085Z,1.91
2024-01-18T08:51:24.204Z,1.87
2024-01-18T08:52:14.295Z,1.89
2024-01-18T08:53:04.347Z,1.87
2024-01-18T08:53:54.403Z,1.93
2024-01-18T08:54:44.569Z,1.91
2024-01-18T08:55:34.482Z,1.86
2024-01-18T08:56:29.814Z,1.80
2024-01-18T08:57:17.818Z,1.81
2024-01-18T08:58:04.868Z,1.81
2024-01-18T08:58:54.930Z,1.81
2024-01-18T08:59:44.956Z,1.82
2024-01-18T09:00:35.392Z,1.83
2024-01-18T09:01:25.379Z,1.83
2024-01-18T09:02:22.854Z,1.84
2024-01-18T09:03:06.496Z,1.81
2024-01-18T09:03:55.652Z,1.81
2024-01-18T09:04:48.520Z,1.82
2024-01-18T09:05:35.665Z,1.81
2024-01-18T09:06:25.777Z,1.81
2024-01-18T09:07:15.836Z,1.82
2024-01-18T09:08:06.705Z,1.83
2024-01-18T09:08:56.231Z,1.86
2024-01-18T09:09:46.876Z,1.82
2024-01-18T09:10:36.296Z,1.84
2024-01-18T09:11:26.318Z,1.86
2024-01-18T09:12:16.373Z,1.86
2024-01-18T09:13:06.408Z,1.83
2024-01-18T09:13:56.501Z,1.84
2024-01-18T09:14:46.548Z,1.82
2024-01-18T09:15:36.813Z,1.81
2024-01-18T09:16:26.769Z,1.81
2024-01-18T09:17:16.829Z,1.79
2024-01-18T09:18:06.988Z,1.80
2024-01-18T09:19:06.328Z,1.82
2024-01-18T09:19:48.134Z,1.82
2024-01-18T09:20:37.053Z,1.82
2024-01-18T09:21:27.132Z,1.79
2024-01-18T09:22:17.121Z,1.75
2024-01-18T09:23:12.968Z,1.82
2024-01-18T09:23:58.287Z,1.82
2024-01-18T09:24:47.400Z,1.82
2024-01-18T09:25:37.355Z,1.83
2024-01-18T09:26:27.431Z,1.81
2024-01-18T09:27:17.514Z,1.81
2024-01-18T09:28:07.560Z,1.80
2024-01-18T09:28:57.600Z,1.79
2024-01-18T09:29:47.812Z,1.79
2024-01-18T09:30:39.686Z,1.77
2024-01-18T09:31:35.786Z,1.77
2024-01-18T09:32:18.963Z,1.77
2024-01-18T09:33:08.090Z,1.77
2024-01-18T09:33:58.115Z,1.79
2024-01-18T09:34:48.151Z,1.79
2024-01-18T09:35:38.330Z,1.83
2024-01-18T09:36:28.378Z,1.84
2024-01-18T09:37:18.326Z,1.84
2024-01-18T09:38:08.497Z,1.77
2024-01-18T09:38:58.532Z,1.81
2024-01-18T09:39:48.741Z,1.81
2024-01-18T09:40:38.646Z,1.76
2024-01-18T09:41:28.694Z,1.77
2024-01-18T09:42:18.788Z,1.78
2024-01-18T09:43:08.775Z,1.80
2024-01-18T09:43:58.811Z,1.75
2024-01-18T09:44:48.989Z,1.77
2024-01-18T09:45:39.007Z,1.78
2024-01-18T09:46:29.103Z,1.81
2024-01-18T09:47:19.129Z,1.72
2024-01-18T09:48:09.321Z,1.75
2024-01-18T09:49:02.103Z,1.69
2024-01-18T09:49:50.358Z,1.69
2024-01-18T09:50:39.391Z,1.69
2024-01-18T09:51:29.623Z,1.70
2024-01-18T09:52:19.519Z,1.71
2024-01-18T09:53:09.601Z,1.73
2024-01-18T09:53:59.650Z,1.74
2024-01-18T09:54:49.726Z,1.74
2024-01-18T09:55:39.803Z,1.77
2024-01-18T09:56:29.932Z,1.74
2024-01-18T09:57:19.977Z,1.74
2024-01-18T09:58:09.979Z,1.78
2024-01-18T09:59:00.023Z,1.73
2024-01-18T09:59:50.060Z,1.79
2024-01-18T10:00:40.186Z,1.75
2024-01-18T10:01:30.161Z,1.77
2024-01-18T10:02:20.213Z,1.77
2024-01-18T10:03:10.319Z,1.74
2024-01-18T10:04:00.367Z,1.76
2024-01-18T10:04:50.365Z,1.73
2024-01-18T10:05:40.489Z,1.70
2024-01-18T10:06:30.547Z,1.71
2024-01-18T10:07:20.626Z,1.70
2024-01-18T10:08:10.791Z,1.72
2024-01-18T10:09:00.682Z,1.73
2024-01-18T10:09:50.815Z,1.71
2024-01-18T10:10:40.828Z,1.69
2024-01-18T10:11:30.872Z,1.69
2024-01-18T10:12:20.972Z,1.71
2024-01-18T10:13:10.980Z,1.72
2024-01-18T10:14:01.010Z,1.65
2024-01-18T10:14:51.093Z,1.68
2024-01-18T10:15:41.193Z,1.64
2024-01-18T10:16:31.210Z,1.67
2024-01-18T10:17:21.244Z,1.65
2024-01-18T10:18:11.430Z,1.64
2024-01-18T10:19:01.393Z,1.62
2024-01-18T10:19:51.528Z,1.66
2024-01-18T10:20:41.481Z,1.64
2024-01-18T10:21:31.534Z,1.60
2024-01-18T10:22:21.703Z,1.59
2024-01-18T10:23:11.899Z,1.58
2024-01-18T10:24:01.839Z,1.55
2024-01-18T10:24:52.244Z,1.56
2024-01-18T10:25:42.226Z,1.56
2024-01-18T10:26:32.264Z,1.58
2024-01-18T10:27:22.415Z,1.54
2024-01-18T10:28:12.401Z,1.58
2024-01-18T10:29:04.632Z,1.55
2024-01-18T10:29:52.505Z,1.58
2024-01-18T10:30:42.585Z,1.56
2024-01-18T10:31:32.875Z,1.56
2024-01-18T10:32:22.824Z,1.54
2024-01-18T10:33:12.915Z,1.51
2024-01-18T10:34:03.046Z,1.53
2024-01-18T10:34:53.100Z,1.53
2024-01-18T10:35:43.034Z,1.53
2024-01-18T10:36:33.177Z,1.53
2024-01-18T10:37:23.098Z,1.51
2024-01-18T10:38:13.168Z,1.54
2024-01-18T10:39:03.304Z,1.53
2024-01-18T10:39:53.358Z,1.55
2024-01-18T10:40:43.373Z,1.52
2024-01-18T10:41:33.391Z,1.52
2024-01-18T10:42:23.466Z,1.53
2024-01-18T10:43:13.505Z,1.55
2024-01-18T10:44:03.545Z,1.58
2024-01-18T10:44:53.612Z,1.57
2024-01-18T10:45:43.721Z,1.58
2024-01-18T10:46:33.725Z,1.52
2024-01-18T10:47:23.824Z,1.55
2024-01-18T10:48:13.874Z,1.55
2024-01-18T10:49:03.964Z,1.55
2024-01-18T10:49:55.077Z,1.56
2024-01-18T10:50:44.051Z,1.56
2024-01-18T10:51:34.143Z,1.57
2024-01-18T10:52:24.145Z,1.54
2024-01-18T10:53:14.243Z,1.57
2024-01-18T10:54:04.990Z,1.57
2024-01-18T10:54:57.801Z,1.54
2024-01-18T10:55:45.459Z,1.54
2024-01-18T10:56:34.470Z,1.54
2024-01-18T10:57:24.586Z,1.54
2024-01-18T10:58:14.618Z,1.54
2024-01-18T10:59:04.688Z,1.52
2024-01-18T10:59:54.756Z,1.51
2024-01-18T11:00:44.882Z,1.53
2024-01-18T11:01:34.991Z,1.52
2024-01-18T11:02:24.981Z,1.54
2024-01-18T11:03:15.124Z,1.52
2024-01-18T11:04:05.076Z,1.52
2024-01-18T11:04:55.889Z,1.51
2024-01-18T11:05:45.188Z,1.50
2024-01-18T11:06:35.321Z,1.50